Time;durP1;ratioP1;P1;durP2;ratioP2;P2;SDS_P1;SDS_P2;PMS_P1;PMS_P2;Temp;Humidity;BMP_temperature;BMP_pressure;BME280_temperature;BME280_humidity;BME280_pressure;Samples;Min_cycle;Max_cycle;Signal;HPM_P1;HPM_P2
2023/04/03 00:00:54;;;;;;;;;;;14.30;74.50;;;;;;5139625;22;94713;-72
2023/04/03 00:03:19;;;;;;;;;;;14.30;73.80;;;;;;4991128;28;99132;-70
2023/04/03 00:05:46;;;;;;;;;;;14.20;74.50;;;;;;4995591;28;99137;-71
2023/04/03 00:08:11;;;;;;;;;;;14.20;74.20;;;;;;4994920;28;94172;-70
2023/04/03 00:10:37;;;;;;;;;;;14.20;74.10;;;;;;4967452;28;93790;-70
2023/04/03 00:13:03;;;;;;;;;;;14.20;74.30;;;;;;4986487;28;96986;-70
2023/04/03 00:15:29;;;;;;;;;;;14.20;74.40;;;;;;4992817;28;94446;-72
2023/04/03 00:17:54;;;;;;;;;;;14.10;74.20;;;;;;4993165;28;95149;-74
2023/04/03 00:20:20;;;;;;;;;;;14.10;74.60;;;;;;4985485;28;95277;-70
2023/04/03 00:22:46;;;;;;;;;;;14.20;74.30;;;;;;4990169;28;94488;-73
2023/04/03 00:25:12;;;;;;;;;;;14.20;73.60;;;;;;4991752;28;99085;-71
2023/04/03 00:27:37;;;;;;;;;;;14.10;74.00;;;;;;4996595;28;95375;-72
2023/04/03 00:30:03;;;;;;;;;;;14.10;74.00;;;;;;4996782;28;93404;-73
2023/04/03 00:32:29;;;;;;;;;;;14.10;74.50;;;;;;4995368;28;95290;-71
2023/04/03 00:34:54;;;;;;;;;;;14.10;74.30;;;;;;4979159;28;95704;-72
2023/04/03 00:37:20;;;;;;;;;;;14.00;74.30;;;;;;4993301;28;96749;-70
2023/04/03 00:39:45;;;;;;;;;;;14.10;74.40;;;;;;4993831;28;94200;-72
2023/04/03 00:42:11;;;;;;;;;;;14.00;74.00;;;;;;4992657;28;94445;-73
2023/04/03 00:44:36;;;;;;;;;;;14.00;74.30;;;;;;4994931;28;94042;-71
2023/04/03 00:47:03;;;;;;;;;;;14.00;74.30;;;;;;5003221;22;95391;-53
2023/04/03 00:49:29;;;;;;;;;;;14.00;74.00;;;;;;4992267;28;94835;-58
2023/04/03 00:51:55;;;;;;;;;;;14.00;73.80;;;;;;4990210;28;94217;-59
2023/04/03 00:54:21;;;;;;;;;;;14.00;73.80;;;;;;4992857;28;93236;-50
2023/04/03 00:56:47;;;;;;;;;;;13.90;74.30;;;;;;4975251;28;95239;-59
2023/04/03 00:59:22;;;;;;;;;;;13.90;74.10;;;;;;4994820;28;95161;-56
2023/04/03 01:01:49;;;;;;;;;;;13.90;73.80;;;;;;4967482;22;96493;-72
2023/04/03 01:04:44;;;;;;;;;;;13.90;73.90;;;;;;4979221;28;95165;-72
2023/04/03 01:07:09;;;;;;;;;;;13.90;74.10;;;;;;4971970;28;95830;-71
2023/04/03 01:09:35;;;;;;;;;;;13.90;73.80;;;;;;4984337;28;94883;-72
2023/04/03 01:12:13;;;;;;;;;;;13.90;74.10;;;;;;4964395;28;95312;-71
2023/04/03 01:14:39;;;;;;;;;;;13.90;73.80;;;;;;4987064;28;95981;-73
2023/04/03 01:17:24;;;;;;;;;;;13.90;73.90;;;;;;4990567;28;94426;-73
2023/04/03 01:19:54;;;;;;;;;;;13.80;74.20;;;;;;4993626;28;93879;-72
2023/04/03 01:22:23;;;;;;;;;;;13.90;74.00;;;;;;4969869;28;96144;-71
2023/04/03 01:24:51;;;;;;;;;;;13.90;74.10;;;;;;4985212;28;95345;-72
2023/04/03 01:27:17;;;;;;;;;;;13.80;74.00;;;;;;4980349;28;97231;-73
2023/04/03 01:29:43;;;;;;;;;;;13.80;74.00;;;;;;4984907;28;95365;-73
2023/04/03 01:32:09;;;;;;;;;;;13.80;73.90;;;;;;4987032;28;94873;-72
2023/04/03 01:34:34;;;;;;;;;;;13.80;74.30;;;;;;4987820;28;94299;-73
2023/04/03 01:37:00;;;;;;;;;;;13.70;74.10;;;;;;4991478;28;94231;-72
2023/04/03 01:39:26;;;;;;;;;;;13.70;73.80;;;;;;4989867;28;94218;-72
2023/04/03 01:41:51;;;;;;;;;;;13.70;74.10;;;;;;4989902;28;94415;-72
2023/04/03 01:44:17;;;;;;;;;;;13.70;74.60;;;;;;4987754;28;94145;-71
2023/04/03 01:46:43;;;;;;;;;;;13.70;74.40;;;;;;4984591;28;94363;-72
2023/04/03 01:49:08;;;;;;;;;;;13.70;74.10;;;;;;4970211;28;95236;-73
2023/04/03 01:51:34;;;;;;;;;;;13.70;74.00;;;;;;4986315;28;100274;-73
2023/04/03 01:54:00;;;;;;;;;;;13.80;73.60;;;;;;4991730;28;94622;-72
2023/04/03 01:56:26;;;;;;;;;;;13.70;74.30;;;;;;5001375;22;94374;-55
2023/04/03 01:58:52;;;;;;;;;;;13.70;73.80;;;;;;4986574;28;98791;-59
2023/04/03 02:01:17;;;;;;;;;;;13.60;74.10;;;;;;4994220;28;93931;-57
2023/04/03 02:03:43;;;;;;;;;;;13.70;73.90;;;;;;4978704;28;94706;-59
2023/04/03 02:06:08;;;;;;;;;;;13.60;73.70;;;;;;4974624;28;94373;-57
2023/04/03 02:08:34;;;;;;;;;;;13.60;74.40;;;;;;4968364;28;93311;-54
2023/04/03 02:11:00;;;;;;;;;;;13.60;74.00;;;;;;4977396;28;95360;-50
2023/04/03 02:13:25;;;;;;;;;;;13.60;73.80;;;;;;4967173;28;99118;-55
2023/04/03 02:15:51;;;;;;;;;;;13.60;74.20;;;;;;4971773;28;95005;-60
2023/04/03 02:18:16;;;;;;;;;;;13.60;74.10;;;;;;4959142;28;94814;-54
2023/04/03 02:20:42;;;;;;;;;;;13.60;73.90;;;;;;4968143;28;96345;-60
2023/04/03 02:23:08;;;;;;;;;;;13.60;74.10;;;;;;4974848;28;96192;-56
2023/04/03 02:25:33;;;;;;;;;;;13.60;74.10;;;;;;4975171;28;94147;-57
2023/04/03 02:27:59;;;;;;;;;;;13.60;73.80;;;;;;4978473;28;94010;-57
2023/04/03 02:30:25;;;;;;;;;;;13.50;74.20;;;;;;4972079;28;94599;-59
2023/04/03 02:32:50;;;;;;;;;;;13.60;74.10;;;;;;4975810;28;97625;-55
2023/04/03 02:35:16;;;;;;;;;;;13.60;74.30;;;;;;4977421;28;94576;-58
2023/04/03 02:37:41;;;;;;;;;;;13.50;74.30;;;;;;4978837;28;94803;-55
2023/04/03 02:40:07;;;;;;;;;;;13.50;74.30;;;;;;4977728;28;95564;-57
2023/04/03 02:42:33;;;;;;;;;;;13.50;74.20;;;;;;4971815;28;94706;-60
2023/04/03 02:45:00;;;;;;;;;;;13.50;74.50;;;;;;4975970;28;93944;-55
2023/04/03 02:47:26;;;;;;;;;;;13.40;74.10;;;;;;4972995;28;94096;-58
2023/04/03 02:49:52;;;;;;;;;;;13.50;74.40;;;;;;4976523;28;93901;-54
2023/04/03 02:52:18;;;;;;;;;;;13.50;74.30;;;;;;4975348;28;95256;-59
2023/04/03 02:54:43;;;;;;;;;;;13.50;74.20;;;;;;4976031;28;98668;-60
2023/04/03 02:57:09;;;;;;;;;;;13.50;74.10;;;;;;4975137;28;97407;-60
2023/04/03 02:59:35;;;;;;;;;;;13.50;73.90;;;;;;4973087;28;94494;-59
2023/04/03 03:02:01;;;;;;;;;;;13.40;74.10;;;;;;4972046;28;95070;-54
2023/04/03 03:04:26;;;;;;;;;;;13.40;74.40;;;;;;4977040;28;97206;-59
2023/04/03 03:06:52;;;;;;;;;;;13.40;74.10;;;;;;4977510;28;94300;-59
2023/04/03 03:09:18;;;;;;;;;;;13.40;73.80;;;;;;4973727;28;95720;-59
2023/04/03 03:11:43;;;;;;;;;;;13.40;74.10;;;;;;4974135;28;95642;-60
2023/04/03 03:14:09;;;;;;;;;;;13.30;74.20;;;;;;4975611;28;94202;-54
2023/04/03 03:16:34;;;;;;;;;;;13.30;74.20;;;;;;4973842;28;94709;-59
2023/04/03 03:19:00;;;;;;;;;;;13.30;74.30;;;;;;4976531;28;98763;-58
2023/04/03 03:21:25;;;;;;;;;;;13.30;74.60;;;;;;4976124;28;94240;-55
2023/04/03 03:23:51;;;;;;;;;;;13.30;74.30;;;;;;4976462;28;95108;-59
2023/04/03 03:26:17;;;;;;;;;;;13.20;74.60;;;;;;4976001;28;93952;-59
2023/04/03 03:28:42;;;;;;;;;;;13.30;74.20;;;;;;4974373;28;95524;-59
2023/04/03 03:31:08;;;;;;;;;;;13.30;74.30;;;;;;4978064;28;94675;-53
2023/04/03 03:33:34;;;;;;;;;;;13.30;73.80;;;;;;4976438;28;98048;-50
2023/04/03 03:36:00;;;;;;;;;;;13.20;74.50;;;;;;4972890;28;94071;-60
2023/04/03 03:38:25;;;;;;;;;;;13.20;74.30;;;;;;4974923;28;94270;-58
2023/04/03 03:40:51;;;;;;;;;;;13.20;74.20;;;;;;4977596;28;94092;-54
2023/04/03 03:43:17;;;;;;;;;;;13.20;74.30;;;;;;4972788;28;94410;-57
2023/04/03 03:45:43;;;;;;;;;;;13.20;74.10;;;;;;4974889;28;97351;-60
2023/04/03 03:48:09;;;;;;;;;;;13.10;74.20;;;;;;4975043;28;94094;-59
2023/04/03 03:50:34;;;;;;;;;;;13.10;74.50;;;;;;4973003;28;95403;-60
2023/04/03 03:53:00;;;;;;;;;;;13.10;74.40;;;;;;4975503;28;95454;-59
2023/04/03 03:55:26;;;;;;;;;;;13.10;74.40;;;;;;4974653;28;95350;-51
2023/04/03 03:57:51;;;;;;;;;;;13.10;74.20;;;;;;4936660;28;95441;-57
2023/04/03 04:00:17;;;;;;;;;;;13.10;74.30;;;;;;4955247;28;99329;-56
2023/04/03 04:02:43;;;;;;;;;;;13.10;74.10;;;;;;4947535;28;94188;-59
2023/04/03 04:05:09;;;;;;;;;;;13.10;74.40;;;;;;4955914;28;94518;-58
2023/04/03 04:07:34;;;;;;;;;;;13.00;74.30;;;;;;4952131;28;98950;-57
2023/04/03 04:10:00;;;;;;;;;;;13.10;74.30;;;;;;4955243;28;95995;-53
2023/04/03 04:12:25;;;;;;;;;;;13.10;74.00;;;;;;4946226;28;93949;-60
2023/04/03 04:14:51;;;;;;;;;;;13.00;74.00;;;;;;4956653;28;93966;-60
2023/04/03 04:17:19;;;;;;;;;;;13.00;73.90;;;;;;4955460;28;95971;-56
2023/04/03 04:19:45;;;;;;;;;;;13.00;74.00;;;;;;4965158;28;96038;-52
2023/04/03 04:22:11;;;;;;;;;;;13.10;74.00;;;;;;4971609;28;94632;-54
2023/04/03 04:24:36;;;;;;;;;;;13.10;73.80;;;;;;4969821;22;95328;-72
2023/04/03 04:27:02;;;;;;;;;;;13.00;74.10;;;;;;4988817;28;96476;-72
2023/04/03 04:29:27;;;;;;;;;;;13.10;73.70;;;;;;4995017;28;94853;-72
2023/04/03 04:31:53;;;;;;;;;;;13.00;73.70;;;;;;4994116;28;94089;-72
2023/04/03 04:34:18;;;;;;;;;;;13.00;74.20;;;;;;5003359;28;93927;-73
2023/04/03 04:36:44;;;;;;;;;;;13.00;73.90;;;;;;4998352;28;94603;-72
2023/04/03 04:39:10;;;;;;;;;;;12.90;74.30;;;;;;4983211;28;96258;-73
2023/04/03 04:41:35;;;;;;;;;;;13.00;73.90;;;;;;5000851;28;95150;-71
2023/04/03 04:44:01;;;;;;;;;;;13.00;73.90;;;;;;4999918;28;94451;-72
2023/04/03 04:46:26;;;;;;;;;;;13.00;73.90;;;;;;5002407;28;94543;-71
2023/04/03 04:48:52;;;;;;;;;;;12.90;74.10;;;;;;5000004;22;95443;-59
2023/04/03 04:51:18;;;;;;;;;;;12.90;74.20;;;;;;5000531;28;94424;-58
2023/04/03 04:53:43;;;;;;;;;;;12.90;74.30;;;;;;4998401;28;94184;-60
2023/04/03 04:56:09;;;;;;;;;;;12.90;74.30;;;;;;4992253;22;95538;-77
2023/04/03 04:58:35;;;;;;;;;;;12.90;73.80;;;;;;4973513;22;98150;-59
2023/04/03 05:01:02;;;;;;;;;;;12.90;74.20;;;;;;4977523;28;95343;-57
2023/04/03 05:03:28;;;;;;;;;;;12.80;74.40;;;;;;4975669;28;94892;-53
2023/04/03 05:05:53;;;;;;;;;;;12.80;74.30;;;;;;4972124;28;95835;-57
2023/04/03 05:08:19;;;;;;;;;;;12.80;74.20;;;;;;4959968;28;95923;-61
2023/04/03 05:10:45;;;;;;;;;;;12.70;74.10;;;;;;4963643;28;95135;-61
2023/04/03 05:13:10;;;;;;;;;;;12.70;74.50;;;;;;4981240;28;94196;-59
2023/04/03 05:15:36;;;;;;;;;;;12.80;74.70;;;;;;4979364;28;93909;-51
2023/04/03 05:18:01;;;;;;;;;;;12.80;75.20;;;;;;4966948;28;94663;-56
2023/04/03 05:20:27;;;;;;;;;;;12.80;74.90;;;;;;4982805;28;94175;-52
2023/04/03 05:22:52;;;;;;;;;;;12.80;75.20;;;;;;4985352;28;94044;-60
2023/04/03 05:25:18;;;;;;;;;;;12.80;74.70;;;;;;4977278;28;95779;-58
2023/04/03 05:27:44;;;;;;;;;;;12.90;74.30;;;;;;4974986;28;95422;-57
2023/04/03 05:30:09;;;;;;;;;;;12.80;74.50;;;;;;4972308;28;94873;-59
2023/04/03 05:32:35;;;;;;;;;;;12.70;74.00;;;;;;4970115;28;93927;-59
2023/04/03 05:35:01;;;;;;;;;;;12.60;75.20;;;;;;4975920;28;94146;-59
2023/04/03 05:37:26;;;;;;;;;;;12.60;74.70;;;;;;4981372;28;94240;-59
2023/04/03 05:39:52;;;;;;;;;;;12.70;74.90;;;;;;4976361;28;94568;-60
2023/04/03 05:42:17;;;;;;;;;;;12.70;73.90;;;;;;4970252;28;94286;-53
2023/04/03 05:44:44;;;;;;;;;;;12.70;74.20;;;;;;4976186;28;96064;-60
2023/04/03 05:47:09;;;;;;;;;;;12.60;74.80;;;;;;4985478;28;93712;-58
2023/04/03 05:49:35;;;;;;;;;;;12.60;74.90;;;;;;4985497;28;93702;-60
2023/04/03 05:52:01;;;;;;;;;;;12.60;74.90;;;;;;4980999;28;94329;-57
2023/04/03 05:54:27;;;;;;;;;;;12.70;75.20;;;;;;4964948;28;95585;-60
2023/04/03 05:56:53;;;;;;;;;;;12.70;74.40;;;;;;4985184;28;94403;-59
2023/04/03 05:59:19;;;;;;;;;;;12.70;74.70;;;;;;4979939;28;94634;-59
2023/04/03 06:01:45;;;;;;;;;;;12.60;74.60;;;;;;4986276;28;93917;-57
2023/04/03 06:04:12;;;;;;;;;;;12.70;74.60;;;;;;4983339;28;94835;-57
2023/04/03 06:06:53;;;;;;;;;;;12.70;74.90;;;;;;4978306;28;94105;-47
2023/04/03 06:09:21;;;;;;;;;;;12.70;74.10;;;;;;4985318;28;93873;-60
2023/04/03 06:11:46;;;;;;;;;;;12.70;74.30;;;;;;4988087;28;93476;-58
2023/04/03 06:14:12;;;;;;;;;;;12.80;74.30;;;;;;4982690;28;94207;-60
2023/04/03 06:16:38;;;;;;;;;;;12.70;74.40;;;;;;4979644;28;94492;-56
2023/04/03 06:19:05;;;;;;;;;;;12.60;74.00;;;;;;4963220;28;94970;-55
2023/04/03 06:21:31;;;;;;;;;;;12.60;74.00;;;;;;4985484;28;94081;-56
2023/04/03 06:23:56;;;;;;;;;;;12.60;74.00;;;;;;4984328;28;94342;-53
2023/04/03 06:26:22;;;;;;;;;;;12.70;74.20;;;;;;4985758;28;93718;-60
2023/04/03 06:28:48;;;;;;;;;;;12.70;74.20;;;;;;4979733;28;93754;-56
2023/04/03 06:31:13;;;;;;;;;;;12.60;74.80;;;;;;4964638;28;94225;-60
2023/04/03 06:33:39;;;;;;;;;;;12.60;73.90;;;;;;5013771;22;96130;-71
2023/04/03 06:36:05;;;;;;;;;;;12.70;74.30;;;;;;4999007;28;93864;-74
2023/04/03 06:38:31;;;;;;;;;;;12.70;73.80;;;;;;4998449;28;95284;-73
2023/04/03 06:40:56;;;;;;;;;;;12.70;73.70;;;;;;4989377;28;96583;-71
2023/04/03 06:43:22;;;;;;;;;;;12.70;73.90;;;;;;4997012;28;95383;-76
2023/04/03 06:45:48;;;;;;;;;;;12.70;73.40;;;;;;4982591;28;97703;-75
2023/04/03 06:48:13;;;;;;;;;;;12.70;74.00;;;;;;5004410;28;94477;-76
2023/04/03 06:50:42;;;;;;;;;;;12.70;73.80;;;;;;5002317;28;94541;-77
2023/04/03 06:53:07;;;;;;;;;;;12.70;73.60;;;;;;4998898;28;95196;-72
2023/04/03 06:55:33;;;;;;;;;;;12.70;73.70;;;;;;4998953;28;94357;-72
2023/04/03 06:57:59;;;;;;;;;;;12.70;73.70;;;;;;4994923;28;94700;-72
2023/04/03 07:00:24;;;;;;;;;;;12.70;73.60;;;;;;4967094;28;93631;-73
2023/04/03 07:02:51;;;;;;;;;;;12.70;73.40;;;;;;4980267;28;94759;-72
2023/04/03 07:05:17;;;;;;;;;;;12.70;73.40;;;;;;4964520;28;94668;-73
2023/04/03 07:07:42;;;;;;;;;;;12.70;73.40;;;;;;4975127;28;94760;-71
2023/04/03 07:10:08;;;;;;;;;;;12.80;73.40;;;;;;4986286;28;94868;-72
2023/04/03 07:12:33;;;;;;;;;;;12.80;73.40;;;;;;4987510;28;94616;-74
2023/04/03 07:14:59;;;;;;;;;;;12.80;73.30;;;;;;4958004;28;95288;-73
2023/04/03 07:17:25;;;;;;;;;;;12.70;73.40;;;;;;4978995;28;94560;-75
2023/04/03 07:19:51;;;;;;;;;;;12.70;73.60;;;;;;4984576;28;94458;-73
2023/04/03 07:22:16;;;;;;;;;;;12.80;73.20;;;;;;4981423;28;94641;-74
2023/04/03 07:24:42;;;;;;;;;;;12.80;73.10;;;;;;4981171;28;94184;-73
2023/04/03 07:27:08;;;;;;;;;;;12.80;73.10;;;;;;4983003;28;95029;-72
2023/04/03 07:29:34;;;;;;;;;;;12.80;73.00;;;;;;4979074;28;94991;-73
2023/04/03 07:31:59;;;;;;;;;;;12.80;73.00;;;;;;4979065;28;95725;-72
2023/04/03 07:34:25;;;;;;;;;;;12.90;72.80;;;;;;4962593;28;97381;-73
2023/04/03 07:36:50;;;;;;;;;;;12.90;72.90;;;;;;4980216;28;95670;-73
2023/04/03 07:39:16;;;;;;;;;;;12.90;72.80;;;;;;4983060;28;95505;-74
2023/04/03 07:41:41;;;;;;;;;;;12.90;72.50;;;;;;4979158;28;94339;-72
2023/04/03 07:44:09;;;;;;;;;;;13.00;72.50;;;;;;4976624;28;96966;-73
2023/04/03 07:46:35;;;;;;;;;;;12.90;72.30;;;;;;4983728;28;94378;-72
2023/04/03 07:49:00;;;;;;;;;;;12.90;73.10;;;;;;4977034;28;95285;-72
2023/04/03 07:51:26;;;;;;;;;;;12.90;72.30;;;;;;4983557;28;95031;-74
2023/04/03 07:53:52;;;;;;;;;;;13.00;72.10;;;;;;4979151;28;96170;-74
2023/04/03 07:56:18;;;;;;;;;;;13.00;72.10;;;;;;4981265;28;95474;-71
2023/04/03 07:58:43;;;;;;;;;;;13.00;72.10;;;;;;4979582;28;95059;-73
2023/04/03 08:01:09;;;;;;;;;;;13.00;72.00;;;;;;4978515;28;94680;-73
2023/04/03 08:03:36;;;;;;;;;;;13.00;72.00;;;;;;4977865;28;95148;-76
2023/04/03 08:06:03;;;;;;;;;;;13.10;71.80;;;;;;4977545;28;94439;-76
2023/04/03 08:08:29;;;;;;;;;;;13.10;71.50;;;;;;4982439;28;96580;-75
2023/04/03 08:10:55;;;;;;;;;;;13.10;71.50;;;;;;4976285;28;96597;-75
2023/04/03 08:13:21;;;;;;;;;;;13.10;71.50;;;;;;4977620;28;95111;-75
2023/04/03 08:15:46;;;;;;;;;;;13.20;71.40;;;;;;4978760;28;94485;-76
2023/04/03 08:18:12;;;;;;;;;;;13.10;71.40;;;;;;4981481;28;94394;-73
2023/04/03 08:20:40;;;;;;;;;;;13.20;71.60;;;;;;4992373;22;97027;-58
2023/04/03 08:23:06;;;;;;;;;;;13.10;71.50;;;;;;4992175;28;94419;-58
2023/04/03 08:25:31;;;;;;;;;;;13.10;71.50;;;;;;5008570;28;95193;-59
2023/04/03 08:27:57;;;;;;;;;;;13.10;71.50;;;;;;5004900;28;93985;-59
2023/04/03 08:30:22;;;;;;;;;;;13.20;71.50;;;;;;5002372;28;94812;-60
2023/04/03 08:32:48;;;;;;;;;;;13.20;71.40;;;;;;5003722;28;94003;-57
2023/04/03 08:37:43;;;;;;;;;;;13.20;71.30;;;;;;4954350;28;94939;-73
2023/04/03 08:40:13;;;;;;;;;;;13.20;71.30;;;;;;4970040;28;95394;-74
2023/04/03 08:42:38;;;;;;;;;;;13.30;71.40;;;;;;4964178;28;96741;-72
2023/04/03 08:45:05;;;;;;;;;;;13.30;71.30;;;;;;4963479;28;97083;-75
2023/04/03 08:47:49;;;;;;;;;;;13.30;71.10;;;;;;4963470;28;96789;-74
2023/04/03 08:50:18;;;;;;;;;;;13.40;71.20;;;;;;4974484;28;95592;-71
2023/04/03 08:52:48;;;;;;;;;;;13.30;71.10;;;;;;4976524;28;94516;-73
2023/04/03 08:55:17;;;;;;;;;;;13.40;70.90;;;;;;4980202;28;94512;-74
2023/04/03 08:57:44;;;;;;;;;;;13.30;71.20;;;;;;4974366;28;94682;-74
2023/04/03 09:00:20;;;;;;;;;;;13.40;71.20;;;;;;4976983;28;94946;-74
2023/04/03 09:02:47;;;;;;;;;;;13.40;71.00;;;;;;4976299;28;94820;-74
2023/04/03 09:05:15;;;;;;;;;;;13.50;71.00;;;;;;4976561;28;94461;-75
2023/04/03 09:07:45;;;;;;;;;;;13.50;70.90;;;;;;4963127;28;95211;-71
2023/04/03 09:10:12;;;;;;;;;;;13.50;71.00;;;;;;4963910;28;98554;-74
2023/04/03 09:12:41;;;;;;;;;;;13.60;71.00;;;;;;4973292;28;95071;-75
2023/04/03 09:15:11;;;;;;;;;;;13.60;71.10;;;;;;4979033;28;95071;-75
2023/04/03 09:18:09;;;;;;;;;;;13.60;71.30;;;;;;4955059;28;95287;-73
2023/04/03 09:20:53;;;;;;;;;;;13.60;72.20;;;;;;4931898;28;94891;-73
2023/04/03 09:23:18;;;;;;;;;;;13.60;71.40;;;;;;4979868;28;95495;-74
2023/04/03 09:25:44;;;;;;;;;;;13.60;71.60;;;;;;4979844;28;94854;-72
2023/04/03 09:28:10;;;;;;;;;;;13.60;71.60;;;;;;4978546;28;94998;-74
2023/04/03 09:30:36;;;;;;;;;;;13.70;71.70;;;;;;4976833;28;94944;-72
2023/04/03 09:33:02;;;;;;;;;;;13.70;71.50;;;;;;4978295;28;94505;-75
2023/04/03 09:35:30;;;;;;;;;;;13.70;71.50;;;;;;4976703;28;95500;-73
2023/04/03 09:37:59;;;;;;;;;;;13.80;71.60;;;;;;4980224;28;94544;-73
2023/04/03 09:40:25;;;;;;;;;;;13.80;71.70;;;;;;4981336;28;94998;-73
2023/04/03 09:42:51;;;;;;;;;;;13.80;71.60;;;;;;4975897;28;94504;-74
2023/04/03 09:45:23;;;;;;;;;;;13.80;72.30;;;;;;4958177;28;96338;-71
2023/04/03 09:47:49;;;;;;;;;;;13.90;71.70;;;;;;4979048;28;94843;-76
2023/04/03 09:50:14;;;;;;;;;;;13.90;71.70;;;;;;4982239;28;95077;-73
2023/04/03 09:52:44;;;;;;;;;;;13.90;71.70;;;;;;4965186;28;95132;-75
2023/04/03 09:55:17;;;;;;;;;;;13.90;71.60;;;;;;4976674;28;94706;-74
2023/04/03 09:57:44;;;;;;;;;;;14.00;71.50;;;;;;4977292;28;95760;-74
2023/04/03 10:00:23;;;;;;;;;;;14.00;71.60;;;;;;4974926;28;96746;-75
2023/04/03 10:02:54;;;;;;;;;;;14.00;71.60;;;;;;4959533;28;96482;-74
2023/04/03 10:05:31;;;;;;;;;;;14.00;71.60;;;;;;4980139;28;95516;-75
2023/04/03 10:08:08;;;;;;;;;;;14.00;71.60;;;;;;4981813;28;95106;-73
2023/04/03 10:10:33;;;;;;;;;;;14.00;71.60;;;;;;4976969;28;95222;-74
2023/04/03 10:13:07;;;;;;;;;;;14.10;71.60;;;;;;4975718;28;95390;-73
2023/04/03 10:15:39;;;;;;;;;;;14.10;71.50;;;;;;4958581;28;95091;-74
2023/04/03 10:18:09;;;;;;;;;;;14.10;71.60;;;;;;4978524;28;94184;-74
2023/04/03 10:20:38;;;;;;;;;;;14.10;71.60;;;;;;4974930;28;95132;-72
2023/04/03 10:23:23;;;;;;;;;;;14.20;71.50;;;;;;4973052;28;94907;-76
2023/04/03 10:25:48;;;;;;;;;;;14.20;71.20;;;;;;4977631;28;95940;-74
2023/04/03 10:28:33;;;;;;;;;;;14.20;71.30;;;;;;4975351;28;95074;-74
2023/04/03 10:31:17;;;;;;;;;;;14.20;71.40;;;;;;4979077;28;94647;-71
2023/04/03 10:33:49;;;;;;;;;;;14.30;71.20;;;;;;4976445;28;94922;-74
2023/04/03 10:36:17;;;;;;;;;;;14.20;71.10;;;;;;4968142;28;94654;-76
2023/04/03 10:38:43;;;;;;;;;;;14.30;71.30;;;;;;4955509;28;94434;-73
2023/04/03 10:41:08;;;;;;;;;;;14.30;71.30;;;;;;4960517;28;95061;-77
2023/04/03 10:43:42;;;;;;;;;;;14.30;71.30;;;;;;4959976;28;94217;-74
2023/04/03 10:46:15;;;;;;;;;;;14.40;71.20;;;;;;4964773;28;94567;-73
2023/04/03 10:48:43;;;;;;;;;;;14.40;71.20;;;;;;4946223;28;95053;-75
2023/04/03 10:51:15;;;;;;;;;;;14.40;71.20;;;;;;4944172;28;97497;-76
2023/04/03 10:53:50;;;;;;;;;;;14.40;71.00;;;;;;4959098;28;94942;-74
2023/04/03 10:56:18;;;;;;;;;;;14.50;71.10;;;;;;4953836;28;95977;-74
2023/04/03 10:58:45;;;;;;;;;;;14.50;71.10;;;;;;4957926;28;94626;-75
2023/04/03 11:01:16;;;;;;;;;;;14.60;71.10;;;;;;4962797;28;95389;-74
2023/04/03 11:03:46;;;;;;;;;;;14.60;71.00;;;;;;4961325;28;95370;-72
2023/04/03 11:06:14;;;;;;;;;;;14.60;71.00;;;;;;4958901;28;94716;-73
2023/04/03 11:08:51;;;;;;;;;;;14.60;70.90;;;;;;4962033;28;93766;-74
2023/04/03 11:11:21;;;;;;;;;;;14.60;70.70;;;;;;4957829;28;95104;-74
2023/04/03 11:13:58;;;;;;;;;;;14.60;70.80;;;;;;4959557;28;95471;-74
2023/04/03 11:16:26;;;;;;;;;;;14.70;70.70;;;;;;4962452;28;95517;-75
2023/04/03 11:19:12;;;;;;;;;;;14.70;70.50;;;;;;4960132;28;94961;-74
2023/04/03 11:21:40;;;;;;;;;;;14.70;70.70;;;;;;4937166;28;96187;-73
2023/04/03 11:24:12;;;;;;;;;;;14.70;70.60;;;;;;4950908;28;94616;-74
2023/04/03 11:26:41;;;;;;;;;;;14.70;70.50;;;;;;4960220;28;94512;-74
2023/04/03 11:29:13;;;;;;;;;;;14.80;70.50;;;;;;4959308;28;96767;-74
2023/04/03 11:31:41;;;;;;;;;;;14.80;70.50;;;;;;4967231;28;95432;-74
2023/04/03 11:34:07;;;;;;;;;;;14.80;70.40;;;;;;4956999;28;95014;-75
2023/04/03 11:36:34;;;;;;;;;;;14.80;70.40;;;;;;4969434;28;94879;-74
2023/04/03 11:39:07;;;;;;;;;;;14.90;70.40;;;;;;4979265;28;94917;-73
2023/04/03 11:41:33;;;;;;;;;;;14.90;70.20;;;;;;4980083;28;96155;-74
2023/04/03 11:44:00;;;;;;;;;;;14.90;70.10;;;;;;4959831;28;97347;-72
2023/04/03 11:46:45;;;;;;;;;;;15.00;70.00;;;;;;4980279;28;95068;-76
2023/04/03 11:49:30;;;;;;;;;;;15.00;70.00;;;;;;4975771;28;94491;-75
2023/04/03 11:51:56;;;;;;;;;;;15.00;70.00;;;;;;4980326;28;94609;-74
2023/04/03 11:54:36;;;;;;;;;;;15.00;69.90;;;;;;4960956;28;94689;-76
2023/04/03 11:57:22;;;;;;;;;;;15.00;69.70;;;;;;4977515;28;94542;-73
2023/04/03 11:59:47;;;;;;;;;;;15.10;69.80;;;;;;4977189;28;93918;-77
2023/04/03 12:02:32;;;;;;;;;;;15.10;69.60;;;;;;4960847;28;97078;-75
2023/04/03 12:05:18;;;;;;;;;;;15.10;69.50;;;;;;4975664;28;94621;-75
2023/04/03 12:07:43;;;;;;;;;;;15.10;69.40;;;;;;4973467;28;96044;-71
2023/04/03 12:10:16;;;;;;;;;;;15.10;69.40;;;;;;4978863;28;94500;-74
2023/04/03 12:12:42;;;;;;;;;;;15.20;69.60;;;;;;4978568;28;95224;-73
2023/04/03 12:15:34;;;;;;;;;;;15.20;69.70;;;;;;4974887;28;94652;-74
2023/04/03 12:18:19;;;;;;;;;;;15.20;69.30;;;;;;4945199;28;95164;-76
2023/04/03 12:20:48;;;;;;;;;;;15.20;69.30;;;;;;4976124;28;94854;-74
2023/04/03 12:23:28;;;;;;;;;;;15.20;69.30;;;;;;4983211;28;95678;-73
2023/04/03 12:26:00;;;;;;;;;;;15.30;69.20;;;;;;4983237;28;93774;-74
2023/04/03 12:28:26;;;;;;;;;;;15.30;69.10;;;;;;4968371;28;94403;-74
2023/04/03 12:30:53;;;;;;;;;;;15.40;69.10;;;;;;4978571;28;93969;-76
2023/04/03 12:33:18;;;;;;;;;;;15.40;69.10;;;;;;4978198;28;96066;-75
2023/04/03 12:36:04;;;;;;;;;;;15.40;68.80;;;;;;4980899;28;95047;-76
2023/04/03 12:38:40;;;;;;;;;;;15.40;68.80;;;;;;4979430;28;95006;-74
2023/04/03 12:41:21;;;;;;;;;;;15.40;68.70;;;;;;4978916;28;94780;-73
2023/04/03 12:43:58;;;;;;;;;;;15.50;68.50;;;;;;4975175;28;94676;-73
2023/04/03 12:46:26;;;;;;;;;;;15.50;68.30;;;;;;4980809;28;94523;-75
2023/04/03 12:48:56;;;;;;;;;;;15.50;68.20;;;;;;4980594;28;94573;-78
2023/04/03 12:51:36;;;;;;;;;;;15.50;68.20;;;;;;4983322;28;93806;-76
2023/04/03 12:54:04;;;;;;;;;;;15.50;68.00;;;;;;4985925;28;94615;-77
2023/04/03 12:56:31;;;;;;;;;;;15.50;67.90;;;;;;4984050;28;94555;-78
2023/04/03 13:01:36;;;;;;;;;;;15.60;68.20;;;;;;4984665;28;97104;-42
2023/04/03 13:04:03;;;;;;;;;;;15.70;68.00;;;;;;4995517;28;95553;-45
2023/04/03 13:06:35;;;;;;;;;;;15.70;68.00;;;;;;5002464;28;94457;-42
2023/04/03 13:09:00;;;;;;;;;;;15.70;68.10;;;;;;5003872;28;95076;-44
2023/04/03 13:11:52;;;;;;;;;;;15.70;67.80;;;;;;5004314;28;94907;-43
2023/04/03 13:14:19;;;;;;;;;;;15.80;67.60;;;;;;4977422;22;95318;-71
2023/04/03 13:16:55;;;;;;;;;;;15.80;67.70;;;;;;4991903;28;94420;-72
2023/04/03 13:19:22;;;;;;;;;;;15.80;67.50;;;;;;5000893;28;94567;-70
2023/04/03 13:21:48;;;;;;;;;;;15.80;67.40;;;;;;4990344;28;94894;-72
2023/04/03 13:24:13;;;;;;;;;;;15.80;67.40;;;;;;4998335;28;96043;-71
2023/04/03 13:26:39;;;;;;;;;;;15.90;67.30;;;;;;5002048;28;95825;-73
2023/04/03 13:29:06;;;;;;;;;;;15.90;67.30;;;;;;5005276;28;95120;-69
2023/04/03 13:31:33;;;;;;;;;;;15.90;67.40;;;;;;5003874;22;94971;-54
2023/04/03 13:34:13;;;;;;;;;;;16.00;67.40;;;;;;4991914;28;95218;-52
2023/04/03 13:36:54;;;;;;;;;;;15.90;67.40;;;;;;4979569;28;94517;-61
2023/04/03 13:39:24;;;;;;;;;;;15.90;68.00;;;;;;4997811;28;94965;-59
2023/04/03 13:41:54;;;;;;;;;;;15.80;68.50;;;;;;5001940;28;93934;-59
2023/04/03 13:44:22;;;;;;;;;;;15.70;68.60;;;;;;4997022;28;94667;-59
2023/04/03 13:46:52;;;;;;;;;;;15.80;68.90;;;;;;5002349;28;94344;-55
2023/04/03 13:49:29;;;;;;;;;;;15.80;69.00;;;;;;5003777;28;95477;-60
2023/04/03 13:51:55;;;;;;;;;;;15.80;68.90;;;;;;5000202;28;94204;-61
2023/04/03 13:54:32;;;;;;;;;;;15.70;69.00;;;;;;4998929;28;94514;-60
2023/04/03 13:56:59;;;;;;;;;;;15.70;69.00;;;;;;4998204;28;94734;-60
2023/04/03 13:59:28;;;;;;;;;;;15.70;69.30;;;;;;5001307;28;96006;-56
2023/04/03 14:02:02;;;;;;;;;;;15.70;69.20;;;;;;5003729;28;94472;-53
2023/04/03 14:04:32;;;;;;;;;;;15.70;69.20;;;;;;5000384;28;95490;-54
2023/04/03 14:06:57;;;;;;;;;;;15.70;69.20;;;;;;4998480;28;93867;-58
2023/04/03 14:09:25;;;;;;;;;;;15.70;69.20;;;;;;5001234;28;95511;-60
2023/04/03 14:11:53;;;;;;;;;;;15.70;69.00;;;;;;4995815;28;94378;-61
2023/04/03 14:14:23;;;;;;;;;;;15.80;69.00;;;;;;4994498;28;95189;-58
2023/04/03 14:16:52;;;;;;;;;;;15.70;68.90;;;;;;5001896;28;94608;-61
2023/04/03 14:19:23;;;;;;;;;;;15.80;69.00;;;;;;5006615;28;94603;-60
2023/04/03 14:21:50;;;;;;;;;;;15.70;69.00;;;;;;5007994;28;94646;-58
2023/04/03 14:24:16;;;;;;;;;;;15.70;68.90;;;;;;4999190;28;94650;-61
2023/04/03 14:26:43;;;;;;;;;;;15.70;69.00;;;;;;4998294;28;94339;-58